createdAt,value
2023-07-10T00:02:13.592Z,99763.25
2023-07-10T00:04:42.260Z,99767.63
2023-07-10T00:07:11.304Z,99771.28
2023-07-10T00:09:39.984Z,99775.16
2023-07-10T00:12:16.626Z,99775.56
2023-07-10T00:14:45.281Z,99776.19
2023-07-10T00:17:16.423Z,99777.28
2023-07-10T00:19:45.050Z,99778.03
2023-07-10T00:22:14.130Z,99780.47
2023-07-10T00:24:42.693Z,99780.38
2023-07-10T00:27:15.188Z,99774.03
2023-07-10T00:29:43.868Z,99779.81
2023-07-10T00:32:14.921Z,99773.81
2023-07-10T00:34:46.153Z,99776.91
2023-07-10T00:37:15.081Z,99782.56
2023-07-10T00:39:44.552Z,99780.75
2023-07-10T00:42:19.493Z,99779.03
2023-07-10T00:44:53.145Z,99782.28
2023-07-10T00:47:29.069Z,99786.41
2023-07-10T00:50:05.478Z,99790.69
2023-07-10T00:52:39.914Z,99786.25
2023-07-10T00:55:17.988Z,99787.69
2023-07-10T00:57:50.918Z,99786.41
2023-07-10T01:00:22.178Z,99795.47
2023-07-10T01:02:51.677Z,99786.75
2023-07-10T01:05:22.327Z,99790.41
2023-07-10T01:07:55.372Z,99795.50
2023-07-10T01:10:24.575Z,99786.50
2023-07-10T01:12:55.008Z,99790.16
2023-07-10T01:15:23.670Z,99792.94
2023-07-10T01:17:52.656Z,99790.84
2023-07-10T01:20:33.228Z,99787.47
2023-07-10T01:23:04.050Z,99793.28
2023-07-10T01:25:37.932Z,99789.69
2023-07-10T01:28:11.096Z,99792.53
2023-07-10T01:30:44.823Z,99788.81
2023-07-10T01:33:18.552Z,99788.81
2023-07-10T01:35:51.614Z,99792.44
2023-07-10T01:38:22.018Z,99797.03
2023-07-10T01:40:56.837Z,99790.63
2023-07-10T01:43:25.871Z,99800.69
2023-07-10T01:45:54.520Z,99795.34
2023-07-10T01:48:28.937Z,99799.06
2023-07-10T01:50:58.117Z,99799.66
2023-07-10T01:53:28.440Z,99805.13
2023-07-10T01:55:57.023Z,99801.66
2023-07-10T01:58:26.943Z,99799.88
2023-07-10T02:00:55.641Z,99800.81
2023-07-10T02:03:24.976Z,99799.09
2023-07-10T02:05:53.601Z,99815.03
2023-07-10T02:08:22.662Z,99807.13
2023-07-10T02:10:52.735Z,99799.97
2023-07-10T02:13:22.081Z,99797.38
2023-07-10T02:15:50.721Z,99798.34
2023-07-10T02:18:19.675Z,99799.38
2023-07-10T02:20:52.064Z,99801.13
2023-07-10T02:23:21.512Z,99798.53
2023-07-10T02:25:52.297Z,99801.41
2023-07-10T02:28:21.228Z,99802.28
2023-07-10T02:30:49.866Z,99804.38
2023-07-10T02:33:20.171Z,99801.78
2023-07-10T02:35:49.239Z,99801.22
2023-07-10T02:38:18.324Z,99807.44
2023-07-10T02:40:46.855Z,99801.34
2023-07-10T02:43:17.023Z,99804.88
2023-07-10T02:45:45.648Z,99805.72
2023-07-10T02:48:16.136Z,99801.34
2023-07-10T02:50:44.817Z,99803.22
2023-07-10T02:53:15.371Z,99802.38
2023-07-10T02:55:45.165Z,99805.22
2023-07-10T02:58:14.087Z,99807.09
2023-07-10T03:00:44.538Z,99805.50
2023-07-10T03:03:13.576Z,99802.16
2023-07-10T03:05:42.299Z,99811.91
2023-07-10T03:08:11.640Z,99804.81
2023-07-10T03:10:40.325Z,99806.91
2023-07-10T03:13:09.262Z,99803.31
2023-07-10T03:15:38.112Z,99809.59
2023-07-10T03:18:08.438Z,99812.00
2023-07-10T03:20:42.080Z,99809.31
2023-07-10T03:23:11.134Z,99819.03
2023-07-10T03:25:39.700Z,99815.44
2023-07-10T03:28:08.625Z,99815.13
2023-07-10T03:30:37.525Z,99818.69
2023-07-10T03:33:07.316Z,99816.72
2023-07-10T03:35:37.324Z,99813.06
2023-07-10T03:38:06.185Z,99812.28
2023-07-10T03:40:34.707Z,99818.25
2023-07-10T03:43:03.857Z,99809.06
2023-07-10T03:45:32.904Z,99810.66
2023-07-10T03:48:01.875Z,99808.66
2023-07-10T03:50:30.526Z,99810.09
2023-07-10T03:53:00.918Z,99818.59
2023-07-10T03:55:29.541Z,99826.13
2023-07-10T03:57:58.433Z,99824.22
2023-07-10T04:00:27.113Z,99816.84
2023-07-10T04:02:56.142Z,99817.38
2023-07-10T04:05:25.001Z,99817.19
2023-07-10T04:07:53.984Z,99824.94
2023-07-10T04:10:24.100Z,99819.72
2023-07-10T04:12:53.061Z,99820.19
2023-07-10T04:15:21.652Z,99824.16
2023-07-10T04:17:50.574Z,99824.72
2023-07-10T04:20:19.302Z,99817.56
2023-07-10T04:22:48.326Z,99819.94
2023-07-10T04:25:17.081Z,99825.13
2023-07-10T04:27:47.674Z,99822.81
2023-07-10T04:30:16.533Z,99838.69
2023-07-10T04:32:45.518Z,99831.28
2023-07-10T04:35:14.035Z,99832.88
2023-07-10T04:37:43.034Z,99837.81
2023-07-10T04:40:12.700Z,99827.75
2023-07-10T04:42:41.579Z,99840.31
2023-07-10T04:45:12.189Z,99833.72
2023-07-10T04:47:41.267Z,99833.03
2023-07-10T04:50:10.874Z,99828.16
2023-07-10T04:52:40.156Z,99828.59
2023-07-10T04:55:09.431Z,99834.25
2023-07-10T04:57:38.410Z,99835.16
2023-07-10T05:00:08.707Z,99839.22
2023-07-10T05:02:39.108Z,99833.03
2023-07-10T05:05:08.264Z,99827.84
2023-07-10T05:07:37.574Z,99838.66
2023-07-10T05:10:07.175Z,99835.91
2023-07-10T05:12:36.201Z,99831.50
2023-07-10T05:15:05.504Z,99834.41
2023-07-10T05:17:34.387Z,99834.41
2023-07-10T05:20:05.302Z,99826.88
2023-07-10T05:22:34.309Z,99835.91
2023-07-10T05:25:02.986Z,99842.34
2023-07-10T05:27:32.048Z,99843.19
2023-07-10T05:30:00.651Z,99840.84
2023-07-10T05:32:29.704Z,99843.09
2023-07-10T05:34:58.329Z,99838.50
2023-07-10T05:37:28.763Z,99837.41
2023-07-10T05:39:57.573Z,99838.19
2023-07-10T05:42:26.873Z,99844.09
2023-07-10T05:44:55.501Z,99844.72
2023-07-10T05:47:24.382Z,99840.53
2023-07-10T05:49:53.037Z,99842.97
2023-07-10T05:52:22.099Z,99839.31
2023-07-10T05:54:52.244Z,99844.59
2023-07-10T05:57:21.273Z,99849.13
2023-07-10T05:59:49.997Z,99851.06
2023-07-10T06:02:18.953Z,99842.91
2023-07-10T06:04:48.892Z,99846.22
2023-07-10T06:07:17.826Z,99845.09
2023-07-10T06:09:46.344Z,99849.13
2023-07-10T06:12:16.704Z,99852.31
2023-07-10T06:14:45.477Z,99845.34
2023-07-10T06:17:14.436Z,99843.63
2023-07-10T06:19:43.070Z,99842.41
2023-07-10T06:22:14.266Z,99843.75
2023-07-10T06:24:42.985Z,99844.84
2023-07-10T06:27:11.882Z,99848.47
2023-07-10T06:29:41.842Z,99834.19
2023-07-10T06:32:14.052Z,99843.97
2023-07-10T06:34:42.581Z,99839.16
2023-07-10T06:37:11.854Z,99843.41
2023-07-10T06:39:40.498Z,99840.72
2023-07-10T06:42:09.419Z,99837.50
2023-07-10T06:44:38.138Z,99841.00
2023-07-10T06:47:08.861Z,99838.78
2023-07-10T06:49:37.481Z,99849.06
2023-07-10T06:52:08.130Z,99837.91
2023-07-10T06:54:36.796Z,99827.19
2023-07-10T06:57:06.058Z,99841.28
2023-07-10T06:59:34.722Z,99835.66
2023-07-10T07:02:06.071Z,99850.09
2023-07-10T07:04:37.558Z,99842.44
2023-07-10T07:07:07.194Z,99844.19
2023-07-10T07:09:36.146Z,99844.13
2023-07-10T07:12:05.611Z,99836.84
2023-07-10T07:14:35.586Z,99848.47
2023-07-10T07:17:06.513Z,99846.78
2023-07-10T07:19:35.383Z,99847.97
2023-07-10T07:22:06.441Z,99844.41
2023-07-10T07:24:35.760Z,99849.69
2023-07-10T07:27:05.039Z,99845.63
2023-07-10T07:29:33.897Z,99843.28
2023-07-10T07:32:03.158Z,99845.41
2023-07-10T07:34:31.856Z,99836.56
2023-07-10T07:37:00.750Z,99841.31
2023-07-10T07:39:33.252Z,99848.28
2023-07-10T07:42:03.116Z,99840.75
2023-07-10T07:44:31.832Z,99843.84
2023-07-10T07:47:00.971Z,99847.91
2023-07-10T07:49:29.642Z,99837.50
2023-07-10T07:51:58.500Z,99839.59
2023-07-10T07:54:27.247Z,99836.03
2023-07-10T07:56:57.631Z,99830.38
2023-07-10T07:59:26.214Z,99837.41
2023-07-10T08:01:55.096Z,99829.81
2023-07-10T08:04:23.826Z,99826.25
2023-07-10T08:06:53.464Z,99822.31
2023-07-10T08:09:22.731Z,99812.63
2023-07-10T08:11:51.816Z,99815.44
2023-07-10T08:14:21.804Z,99814.25
2023-07-10T08:16:50.774Z,99810.72
2023-07-10T08:19:19.419Z,99804.09
2023-07-10T08:21:49.003Z,99807.44
2023-07-10T08:24:17.527Z,99805.34
2023-07-10T08:26:46.436Z,99807.25
2023-07-10T08:29:36.489Z,99799.09
2023-07-10T08:32:06.134Z,99800.78
2023-07-10T08:34:37.539Z,99802.38
2023-07-10T08:37:07.789Z,99804.16
2023-07-10T08:39:36.426Z,99797.22
2023-07-10T08:42:16.584Z,99809.13
2023-07-10T08:44:50.268Z,99806.72
2023-07-10T08:47:24.377Z,99807.50
2023-07-10T08:49:56.410Z,99800.44
2023-07-10T08:52:37.049Z,99800.03
2023-07-10T08:55:10.869Z,99804.13
2023-07-10T08:57:46.459Z,99803.41
2023-07-10T09:00:18.424Z,99807.44
2023-07-10T09:02:58.960Z,99800.91
2023-07-10T09:05:31.509Z,99805.78
2023-07-10T09:08:04.647Z,99803.97
2023-07-10T09:10:44.057Z,99808.16
2023-07-10T09:13:18.917Z,99804.00
2023-07-10T09:15:52.687Z,99811.88
2023-07-10T09:18:26.382Z,99812.22
2023-07-10T09:20:59.385Z,99801.97
2023-07-10T09:23:32.183Z,99806.34
2023-07-10T09:26:13.152Z,99813.72
2023-07-10T09:28:44.478Z,99811.00
2023-07-10T09:31:37.997Z,99821.53
2023-07-10T09:34:07.382Z,99809.09
2023-07-10T09:36:36.461Z,99808.94
2023-07-10T09:39:06.378Z,99811.56
2023-07-10T09:41:39.801Z,99813.94
2023-07-10T09:44:18.830Z,99811.06
2023-07-10T09:46:51.460Z,99808.84
2023-07-10T09:49:23.527Z,99810.88
2023-07-10T09:51:58.862Z,99807.97
2023-07-10T09:54:37.178Z,99807.66
2023-07-10T09:57:14.230Z,99811.19
2023-07-10T09:59:50.264Z,99811.00
2023-07-10T10:02:24.156Z,99807.25
2023-07-10T10:05:06.487Z,99804.69
2023-07-10T10:07:40.737Z,99808.06
2023-07-10T10:10:25.539Z,99807.56
2023-07-10T10:13:00.814Z,99810.59
2023-07-10T10:15:42.506Z,99808.75
2023-07-10T10:18:22.463Z,99805.41
2023-07-10T10:20:52.425Z,99800.03
2023-07-10T10:23:32.160Z,99802.03
2023-07-10T10:26:18.899Z,99801.06
2023-07-10T10:28:55.241Z,99801.66
2023-07-10T10:31:31.887Z,99805.75
2023-07-10T10:34:09.531Z,99805.00
2023-07-10T10:36:48.333Z,99799.56
2023-07-10T10:39:25.684Z,99793.63
2023-07-10T10:42:03.763Z,99790.94
2023-07-10T10:44:50.721Z,99789.00
2023-07-10T10:47:42.294Z,99787.97
2023-07-10T10:50:31.588Z,99790.53
2023-07-10T10:53:23.341Z,99784.28
2023-07-10T10:56:04.154Z,99783.06
2023-07-10T10:58:54.042Z,99771.50
2023-07-10T11:01:39.002Z,99772.66
2023-07-10T11:04:21.686Z,99767.38
2023-07-10T11:06:57.642Z,99762.34
2023-07-10T11:09:33.966Z,99771.91
2023-07-10T11:12:04.947Z,99774.28
2023-07-10T11:14:35.683Z,99763.59
2023-07-10T11:17:04.478Z,99758.78
2023-07-10T11:19:34.886Z,99768.03
2023-07-10T11:22:27.404Z,99748.84
2023-07-10T11:24:57.106Z,99751.91
2023-07-10T11:27:34.401Z,99737.22
2023-07-10T11:30:12.661Z,99753.34
2023-07-10T11:32:58.523Z,99761.41
2023-07-10T11:35:27.903Z,99754.88
2023-07-10T11:38:18.638Z,99742.84
2023-07-10T11:40:53.405Z,99745.84
2023-07-10T11:43:56.503Z,99737.09
2023-07-10T11:46:31.796Z,99731.25
2023-07-10T11:49:14.310Z,99741.69
2023-07-10T11:51:43.652Z,99737.25
2023-07-10T11:54:41.586Z,99745.63
2023-07-10T11:57:20.134Z,99736.69
2023-07-10T11:59:51.512Z,99738.72
2023-07-10T12:02:34.243Z,99739.28
2023-07-10T12:05:04.686Z,99741.06
2023-07-10T12:07:33.651Z,99739.59
2023-07-10T12:10:02.524Z,99733.31
2023-07-10T12:12:34.783Z,99730.94
2023-07-10T12:15:06.020Z,99738.41
2023-07-10T12:20:19.641Z,99737.97
2023-07-10T12:22:48.626Z,99729.31
2023-07-10T12:25:19.794Z,99726.66
2023-07-10T12:28:24.050Z,99728.69
2023-07-10T12:30:39.896Z,99716.63
2023-07-10T12:33:33.319Z,99727.19
2023-07-10T12:36:20.091Z,99734.00
2023-07-10T12:38:49.989Z,99723.59
2023-07-10T12:41:21.301Z,99716.59
2023-07-10T12:43:54.557Z,99720.16
2023-07-10T12:46:26.457Z,99709.66
2023-07-10T12:48:59.789Z,99714.69
2023-07-10T12:51:31.761Z,99709.22
2023-07-10T12:54:03.456Z,99706.16
2023-07-10T12:56:35.824Z,99703.44
2023-07-10T12:59:19.848Z,99706.03
2023-07-10T13:01:52.610Z,99707.84
2023-07-10T13:04:26.139Z,99691.59
2023-07-10T13:07:16.716Z,99697.03
2023-07-10T13:09:55.070Z,99699.03
2023-07-10T13:12:25.554Z,99697.06
2023-07-10T13:14:55.970Z,99695.16
2023-07-10T13:17:26.511Z,99683.19
2023-07-10T13:20:08.431Z,99682.91
2023-07-10T13:22:40.499Z,99681.47
2023-07-10T13:25:13.446Z,99680.84
2023-07-10T13:27:42.485Z,99684.59
2023-07-10T13:30:19.010Z,99676.72
2023-07-10T13:32:48.733Z,99673.91
2023-07-10T13:35:18.351Z,99679.78
2023-07-10T13:37:46.995Z,99685.06
2023-07-10T13:40:23.417Z,99680.31
2023-07-10T13:42:52.011Z,99671.72
2023-07-10T13:45:23.359Z,99668.16
2023-07-10T13:47:52.605Z,99676.69
2023-07-10T13:50:21.648Z,99670.84
2023-07-10T13:52:51.214Z,99664.59
2023-07-10T13:58:38.331Z,99659.88
2023-07-10T14:01:10.926Z,99659.47
2023-07-10T14:03:39.850Z,99655.31
2023-07-10T14:06:33.727Z,99655.59
2023-07-10T14:09:06.187Z,99657.03
2023-07-10T14:11:35.731Z,99649.03
2023-07-10T14:14:04.378Z,99646.41
2023-07-10T14:16:34.804Z,99639.19
2023-07-10T14:19:04.288Z,99642.16
2023-07-10T14:21:34.248Z,99652.41
2023-07-10T14:24:02.885Z,99645.22
2023-07-10T14:26:32.157Z,99643.13
2023-07-10T14:29:01.044Z,99632.97
2023-07-10T14:31:30.944Z,99631.94
2023-07-10T14:34:00.975Z,99635.88
2023-07-10T14:36:29.907Z,99633.88
2023-07-10T14:38:58.509Z,99630.81
2023-07-10T14:41:29.687Z,99631.31
2023-07-10T14:44:00.317Z,99624.69
2023-07-10T14:46:34.019Z,99617.00
2023-07-10T14:49:15.333Z,99607.25
2023-07-10T14:51:45.787Z,99619.03
2023-07-10T14:54:15.189Z,99612.75
2023-07-10T14:56:45.228Z,99611.69
2023-07-10T14:59:16.473Z,99612.63
2023-07-10T15:01:45.464Z,99613.72
2023-07-10T15:04:15.707Z,99615.97
2023-07-10T15:06:46.711Z,99604.44
2023-07-10T15:09:18.626Z,99600.16
2023-07-10T15:11:47.470Z,99603.31
2023-07-10T15:14:19.483Z,99602.06
2023-07-10T15:16:48.660Z,99596.25
2023-07-10T15:19:27.157Z,99595.16
2023-07-10T15:21:56.269Z,99607.16
2023-07-10T15:24:27.040Z,99607.09
2023-07-10T15:26:56.275Z,99603.13
2023-07-10T15:29:24.972Z,99599.09
2023-07-10T15:32:02.993Z,99595.56
2023-07-10T15:34:33.088Z,99592.91
2023-07-10T15:37:02.080Z,99594.59
2023-07-10T15:39:30.696Z,99596.84
2023-07-10T15:42:00.359Z,99590.00
2023-07-10T15:44:31.049Z,99585.25
2023-07-10T15:47:00.534Z,99582.97
2023-07-10T15:49:29.745Z,99577.81
2023-07-10T15:52:00.119Z,99580.19
2023-07-10T15:54:28.824Z,99576.53
2023-07-10T15:56:57.800Z,99577.25
2023-07-10T15:59:26.615Z,99578.63
2023-07-10T16:01:55.727Z,99574.66
2023-07-10T16:04:26.341Z,99566.84
2023-07-10T16:06:56.009Z,99569.53
2023-07-10T16:09:26.100Z,99559.34
2023-07-10T16:11:55.155Z,99563.19
2023-07-10T16:14:29.713Z,99565.03
2023-07-10T16:16:58.699Z,99564.63
2023-07-10T16:19:27.891Z,99564.00
2023-07-10T16:21:56.951Z,99562.34
2023-07-10T16:24:27.616Z,99569.84
2023-07-10T16:26:56.489Z,99563.34
2023-07-10T16:29:25.145Z,99560.19
2023-07-10T16:31:56.581Z,99558.03
2023-07-10T16:34:26.347Z,99564.00
2023-07-10T16:36:56.615Z,99562.13
2023-07-10T16:39:25.187Z,99558.91
2023-07-10T16:41:57.002Z,99557.53
2023-07-10T16:44:25.756Z,99559.03
2023-07-10T16:46:54.636Z,99558.91
2023-07-10T16:49:23.974Z,99563.16
2023-07-10T16:51:52.864Z,99558.69
2023-07-10T16:54:21.500Z,99552.97
2023-07-10T16:56:51.867Z,99546.66
2023-07-10T16:59:21.776Z,99546.97
2023-07-10T17:01:50.959Z,99543.00
2023-07-10T17:04:20.576Z,99549.31
2023-07-10T17:06:52.802Z,99550.59
2023-07-10T17:09:21.358Z,99562.59
2023-07-10T17:11:50.393Z,99547.44
2023-07-10T17:14:19.502Z,99552.44
2023-07-10T17:16:49.992Z,99549.53
2023-07-10T17:19:18.641Z,99549.19
2023-07-10T17:21:47.630Z,99555.63
2023-07-10T17:24:20.495Z,99555.38
2023-07-10T17:26:49.427Z,99560.69
2023-07-10T17:29:19.003Z,99549.38
2023-07-10T17:31:49.379Z,99558.94
2023-07-10T17:34:20.648Z,99552.38
2023-07-10T17:36:49.881Z,99556.84
2023-07-10T17:39:22.313Z,99559.19
2023-07-10T17:41:53.987Z,99565.69
2023-07-10T17:44:25.194Z,99566.19
2023-07-10T17:46:56.769Z,99559.53
2023-07-10T17:49:25.407Z,99556.56
2023-07-10T17:51:54.590Z,99559.28
2023-07-10T17:54:27.793Z,99560.72
2023-07-10T17:56:57.498Z,99568.22
2023-07-10T17:59:26.097Z,99567.41
2023-07-10T18:02:00.909Z,99565.34
2023-07-10T18:04:31.923Z,99572.03
2023-07-10T18:07:00.758Z,99569.75
2023-07-10T18:09:32.630Z,99570.13
2023-07-10T18:12:02.438Z,99563.84
2023-07-10T18:14:31.456Z,99567.31
2023-07-10T18:17:01.704Z,99573.31
2023-07-10T18:19:30.300Z,99580.88
2023-07-10T18:21:59.306Z,99572.56
2023-07-10T18:24:28.382Z,99575.19
2023-07-10T18:26:57.329Z,99572.84
2023-07-10T18:29:27.415Z,99572.31
2023-07-10T18:31:58.424Z,99577.41
2023-07-10T18:34:28.394Z,99575.84
2023-07-10T18:36:57.921Z,99580.66
2023-07-10T18:39:26.473Z,99581.81
2023-07-10T18:41:57.249Z,99583.94
2023-07-10T18:44:25.873Z,99591.53
2023-07-10T18:46:54.869Z,99588.53
2023-07-10T18:49:24.170Z,99593.69
2023-07-10T18:51:54.835Z,99598.38
2023-07-10T18:54:24.857Z,99606.41
2023-07-10T18:56:53.775Z,99610.03
2023-07-10T18:59:24.334Z,99609.91
2023-07-10T19:01:55.184Z,99614.34
2023-07-10T19:04:25.798Z,99623.09
2023-07-10T19:06:57.578Z,99614.06
2023-07-10T19:09:28.543Z,99617.97
2023-07-10T19:11:57.806Z,99620.75
2023-07-10T19:14:28.140Z,99619.78
2023-07-10T19:17:00.176Z,99633.50
2023-07-10T19:19:34.288Z,99622.56
2023-07-10T19:22:05.658Z,99625.34
2023-07-10T19:24:34.312Z,99623.50
2023-07-10T19:27:04.001Z,99628.13
2023-07-10T19:29:32.691Z,99620.44
2023-07-10T19:32:05.189Z,99621.03
2023-07-10T19:34:35.117Z,99619.34
2023-07-10T19:37:06.069Z,99619.22
2023-07-10T19:39:37.366Z,99628.34
2023-07-10T19:42:07.270Z,99625.22
2023-07-10T19:44:48.359Z,99631.63
2023-07-10T19:47:19.548Z,99636.84
2023-07-10T19:49:50.089Z,99636.72
2023-07-10T19:52:21.556Z,99638.28
2023-07-10T19:54:51.473Z,99632.44
2023-07-10T19:57:23.529Z,99633.03
2023-07-10T19:59:53.190Z,99629.88
2023-07-10T20:02:22.883Z,99632.03
2023-07-10T20:04:51.525Z,99624.44
2023-07-10T20:07:21.782Z,99627.72
2023-07-10T20:09:52.757Z,99623.44
2023-07-10T20:12:24.454Z,99625.00
2023-07-10T20:14:53.342Z,99623.00
2023-07-10T20:17:34.783Z,99628.81
2023-07-10T20:20:05.473Z,99621.38
2023-07-10T20:22:36.146Z,99611.00
2023-07-10T20:25:05.391Z,99607.41
2023-07-10T20:27:36.233Z,99605.97
2023-07-10T20:30:05.355Z,99615.31
2023-07-10T20:32:34.683Z,99612.03
2023-07-10T20:35:03.753Z,99604.25
2023-07-10T20:37:32.943Z,99606.34
2023-07-10T20:40:03.528Z,99600.25
2023-07-10T20:42:32.529Z,99599.50
2023-07-10T20:45:01.418Z,99596.97
2023-07-10T20:47:30.471Z,99595.91
2023-07-10T20:49:59.071Z,99589.22
2023-07-10T20:52:28.148Z,99598.28
2023-07-10T20:54:56.697Z,99597.44
2023-07-10T20:57:27.279Z,99596.84
2023-07-10T20:59:56.180Z,99597.97
2023-07-10T21:02:27.767Z,99593.56
2023-07-10T21:04:56.506Z,99595.72
2023-07-10T21:07:26.152Z,99589.00
2023-07-10T21:09:56.059Z,99580.56
2023-07-10T21:12:26.368Z,99580.38
2023-07-10T21:14:54.955Z,99584.31
2023-07-10T21:17:28.784Z,99580.63
2023-07-10T21:19:57.426Z,99583.44
2023-07-10T21:22:26.570Z,99581.03
2023-07-10T21:24:55.176Z,99587.41
2023-07-10T21:27:28.422Z,99587.28
2023-07-10T21:30:02.231Z,99582.69
2023-07-10T21:32:31.243Z,99584.66
2023-07-10T21:35:00.007Z,99572.31
2023-07-10T21:37:28.827Z,99578.22
2023-07-10T21:39:57.364Z,99575.63
2023-07-10T21:42:28.819Z,99577.91
2023-07-10T21:44:57.899Z,99576.28
2023-07-10T21:47:26.941Z,99568.75
2023-07-10T21:49:55.521Z,99571.81
2023-07-10T21:52:24.460Z,99573.25
2023-07-10T21:54:53.085Z,99567.03
2023-07-10T21:57:24.305Z,99568.63
2023-07-10T21:59:54.288Z,99563.44
2023-07-10T22:02:22.992Z,99564.09
2023-07-10T22:04:51.566Z,99562.78
2023-07-10T22:07:20.387Z,99561.47
2023-07-10T22:09:49.025Z,99568.22
2023-07-10T22:12:18.080Z,99560.41
2023-07-10T22:14:46.573Z,99558.44
2023-07-10T22:17:21.027Z,99555.88
2023-07-10T22:19:53.629Z,99541.69
2023-07-10T22:22:22.996Z,99542.47
2023-07-10T22:24:51.673Z,99542.28
2023-07-10T22:27:20.575Z,99544.47
2023-07-10T22:29:49.135Z,99537.13
2023-07-10T22:32:19.577Z,99542.53
2023-07-10T22:34:48.236Z,99531.63
2023-07-10T22:37:17.141Z,99532.34
2023-07-10T22:39:45.652Z,99535.69
2023-07-10T22:42:15.584Z,99531.63
2023-07-10T22:44:44.569Z,99526.50
2023-07-10T22:47:13.557Z,99534.22
2023-07-10T22:49:43.576Z,99530.44
2023-07-10T22:52:12.375Z,99538.00
2023-07-10T22:54:40.964Z,99546.19
2023-07-10T22:57:11.727Z,99529.31
2023-07-10T22:59:40.708Z,99526.50
2023-07-10T23:02:09.564Z,99530.19
2023-07-10T23:04:38.190Z,99538.63
2023-07-10T23:07:09.247Z,99530.31
2023-07-10T23:09:37.771Z,99529.72
2023-07-10T23:12:07.134Z,99531.53
2023-07-10T23:14:35.718Z,99542.16
2023-07-10T23:17:11.111Z,99539.97
2023-07-10T23:19:39.634Z,99533.28
2023-07-10T23:22:10.186Z,99543.06
2023-07-10T23:24:38.695Z,99527.03
2023-07-10T23:27:08.804Z,99535.97
2023-07-10T23:29:37.379Z,99531.44
2023-07-10T23:32:06.358Z,99533.53
2023-07-10T23:34:35.275Z,99529.63
2023-07-10T23:37:04.614Z,99525.94
2023-07-10T23:39:34.492Z,99532.34
2023-07-10T23:42:03.327Z,99528.31
2023-07-10T23:44:31.868Z,99537.84
2023-07-10T23:47:00.887Z,99529.06
2023-07-10T23:49:29.460Z,99527.94
2023-07-10T23:51:58.242Z,99523.56
2023-07-10T23:54:26.829Z,99517.44
2023-07-10T23:57:10.699Z,99526.47
2023-07-10T23:59:40.277Z,99535.28
